MDT,Max TemperatureF,Mean TemperatureF,Min TemperatureF,Max Dew PointF,MeanDew PointF,Min DewpointF,Max Humidity, Mean Humidity, Min Humidity, Max Sea Level PressureIn, Mean Sea Level PressureIn, Min Sea Level PressureIn, Max VisibilityMiles, Mean VisibilityMiles, Min VisibilityMiles, Max Wind SpeedMPH, Mean Wind SpeedMPH, Max Gust SpeedMPH,PrecipitationIn, CloudCover, Events, WindDirDegrees
2011-10-1,75,63,51,54,39,34,82,52,27,30.13,30.09,30.03,10,10,7,14,8,20,0.00,3,Rain,307
2011-10-2,73,60,48,50,44,37,88,69,27,30.15,30.10,30.08,10,10,7,15,11,21,0.00,1,,313
2011-10-3,75,62,48,50,39,36,82,56,27,30.10,30.04,29.94,10,10,7,17,9,29,0.00,4,Rain,317
2011-10-4,59,54,48,52,50,46,100,90,67,29.94,29.86,29.74,10,8,3,17,7,29,0.00,7,Rain-Thunderstorm,314
2011-10-5,82,60,39,48,44,36,100,90,26,29.95,29.63,29.55,15,8,4,15,4,23,0.00,8,Rain-Thunderstorm,159
2011-10-6,39,37,35,37,36,34,100,95,93,29.80,29.63,29.56,10,8,3,8,3,9,0.00,8,Rain-Snow,128
2011-10-7,48,42,35,43,37,34,100,95,81,30.09,29.90,29.81,10,9,7,9,3,,0.00,7,Rain,153
2011-10-8,53,44,35,43,34,30,87,76,47,30.26,30.17,30.09,20,10,7,13,8,,0.00,1,,307
2011-10-9,53,44,35,39,34,30,87,77,51,30.26,30.17,30.03,10,10,7,14,9,21,0.00,2,,312
2011-10-10,53,44,35,43,36,32,100,84,51,30.02,29.97,29.89,10,9,5,14,7,,0.00,3,Rain,313
2011-10-11,55,46,37,45,38,30,100,85,41,30.15,29.97,29.90,10,9,3,12,3,23,0.00,6,Rain-Thunderstorm,309
2011-10-12,57,44,32,36,32,30,93,75,38,30.27,30.22,30.16,10,10,7,9,8,,0.00,0,,319
2011-10-13,64,50,35,37,30,25,75,61,30,30.23,30.16,30.04,10,10,7,17,9,18,0.00,3,,307
2011-10-14,69,56,44,45,39,37,76,64,37,30.12,30.07,30.04,10,10,7,14,9,18,0.00,4,,308
2011-10-15,69,56,42,46,39,36,76,66,31,30.07,30.05,30.01,10,10,7,12,9,17,0.00,1,,307
2011-10-16,60,50,41,46,39,36,100,77,55,30.14,30.08,30.04,10,9,4,18,10,24,0.00,3,Rain-Thunderstorm,319
2011-10-17,51,42,33,41,35,30,93,85,62,30.42,30.31,30.16,10,10,7,12,7,,0.00,0,,322
2011-10-18,57,45,33,37,32,28,93,74,38,30.47,30.40,30.27,10,10,7,12,8,,0.00,0,,314
2011-10-19,57,46,35,39,32,27,87,72,38,30.26,30.14,30.02,10,10,7,14,9,16,0.00,1,,313
2011-10-20,60,48,35,41,33,30,81,69,36,30.17,30.13,30.10,10,10,7,14,9,24,0.00,0,,305
2011-10-21,62,52,42,39,36,32,81,64,37,30.27,30.21,30.17,10,10,7,16,9,20,0.00,3,,304
2011-10-22,62,50,37,39,34,30,81,67,39,30.33,30.29,30.25,10,10,7,14,9,21,0.00,0,,304
2011-10-23,64,50,35,41,35,32,87,71,39,30.31,30.24,30.10,10,10,10,13,8,,0.00,0,,305
2011-10-24,60,46,32,39,31,16,81,68,21,30.10,30.03,29.95,10,10,7,17,9,28,0.00,2,,310
2011-10-25,42,34,26,32,26,19,100,78,49,30.26,30.16,30.06,10,9,1,12,6,,0.00,3,Snow,321
2011-10-26,44,32,21,30,20,7,100,71,26,30.33,30.27,30.20,10,10,7,12,6,,0.00,1,,300
2011-10-27,48,37,26,23,21,16,75,62,37,30.25,30.19,30.13,10,10,7,12,5,,0.00,2,,325
2011-10-28,51,38,26,23,16,10,56,48,26,30.33,30.26,30.16,10,10,7,12,8,,0.00,0,,306
2011-10-29,59,46,32,30,22,19,60,52,29,30.26,30.16,30.12,10,10,10,13,8,,0.00,1,,304
2011-10-30,55,44,32,34,25,21,70,58,36,30.33,30.26,30.19,10,10,10,17,9,,0.00,0,,317
2011-10-31,57,44,30,45,30,10,93,70,18,30.19,30.11,30.02,10,10,7,17,8,18,0.00,3,Rain,308